createdAt,value
2022-10-17T00:05:35.531Z,100880.16
2022-10-17T00:15:39.581Z,100891.91
2022-10-17T00:25:44.647Z,100905.16
2022-10-17T00:35:48.187Z,100902.25
2022-10-17T00:45:53.322Z,100896.88
2022-10-17T00:55:56.970Z,100893.22
2022-10-17T01:06:02.296Z,100910.75
2022-10-17T01:16:13.090Z,100920.50
2022-10-17T01:26:26.929Z,100917.66
2022-10-17T01:36:42.917Z,100923.13
2022-10-17T01:46:52.030Z,100907.69
2022-10-17T01:57:01.369Z,100905.47
2022-10-17T02:07:09.631Z,100906.28
2022-10-17T02:17:28.811Z,100897.53
2022-10-17T02:27:41.655Z,100909.31
2022-10-17T02:37:51.810Z,100902.59
2022-10-17T02:48:06.564Z,100920.53
2022-10-17T02:58:21.041Z,100925.06
2022-10-17T03:08:25.411Z,100930.09
2022-10-17T03:18:30.392Z,100926.72
2022-10-17T03:28:34.296Z,100931.78
2022-10-17T03:38:40.698Z,100938.84
2022-10-17T03:48:44.303Z,100951.00
2022-10-17T03:58:49.585Z,100956.31
2022-10-17T04:08:53.253Z,100967.16
2022-10-17T04:19:00.779Z,100973.69
2022-10-17T04:29:07.148Z,100983.94
2022-10-17T04:49:21.021Z,100989.44
2022-10-17T04:59:26.823Z,100986.63
2022-10-17T05:09:31.121Z,100994.44
2022-10-17T05:19:37.801Z,101005.94
2022-10-17T05:29:41.546Z,101004.16
2022-10-17T05:39:50.641Z,101002.88
2022-10-17T05:49:55.331Z,101010.81
2022-10-17T06:00:01.517Z,100999.88
2022-10-17T06:10:09.224Z,101006.88
2022-10-17T06:20:14.154Z,101022.31
2022-10-17T06:30:17.970Z,101022.66
2022-10-17T06:40:23.268Z,101031.78
2022-10-17T06:50:27.496Z,101048.16
2022-10-17T07:00:32.927Z,101050.75
2022-10-17T07:10:38.617Z,101056.69
2022-10-17T07:20:43.890Z,101063.72
2022-10-17T07:30:51.927Z,101065.91
2022-10-17T07:41:01.126Z,101090.56
2022-10-17T07:51:08.672Z,101094.34
2022-10-17T08:01:16.190Z,101098.19
2022-10-17T08:11:20.053Z,101081.78
2022-10-17T08:21:25.127Z,101075.94
2022-10-17T08:31:28.749Z,101063.81
2022-10-17T08:41:51.709Z,101069.69
2022-10-17T08:52:03.586Z,101068.38
2022-10-17T09:02:38.661Z,101056.38
2022-10-17T09:12:50.426Z,101052.69
2022-10-17T09:23:00.320Z,101059.59
2022-10-17T09:33:23.249Z,101079.50
2022-10-17T09:43:40.451Z,101080.69
2022-10-17T09:53:48.240Z,101082.28
2022-10-17T10:04:11.858Z,101075.50
2022-10-17T10:14:23.803Z,101093.53
2022-10-17T10:24:31.001Z,101073.06
2022-10-17T10:34:36.630Z,101076.97
2022-10-17T10:44:42.586Z,101073.91
2022-10-17T10:54:58.036Z,101061.34
2022-10-17T11:05:09.693Z,101061.06
2022-10-17T11:15:25.872Z,101057.50
2022-10-17T11:25:35.311Z,101045.84
2022-10-17T11:35:44.215Z,101065.47
2022-10-17T11:45:54.722Z,101055.63
2022-10-17T11:56:01.577Z,101053.22
2022-10-17T12:06:18.878Z,101045.63
2022-10-17T12:16:47.485Z,101040.69
2022-10-17T12:26:56.337Z,101035.56
2022-10-17T12:37:01.054Z,101024.41
2022-10-17T12:47:38.630Z,101015.16
2022-10-17T12:57:55.498Z,101031.53
2022-10-17T13:08:05.032Z,101023.84
2022-10-17T13:18:21.980Z,101033.22
2022-10-17T13:28:28.998Z,101028.00
2022-10-17T13:38:36.688Z,101033.41
2022-10-17T13:48:46.670Z,101041.13
2022-10-17T13:58:52.829Z,101043.63
2022-10-17T14:09:01.857Z,101054.84
2022-10-17T14:19:06.657Z,101041.91
2022-10-17T14:29:27.072Z,101057.41
2022-10-17T14:39:31.185Z,101057.28
2022-10-17T14:49:39.171Z,101071.88
2022-10-17T14:59:53.884Z,101086.28
2022-10-17T15:09:59.944Z,101095.69
2022-10-17T15:20:03.622Z,101105.88
2022-10-17T15:30:21.785Z,101119.38
2022-10-17T15:40:29.174Z,101117.59
2022-10-17T15:50:34.424Z,101122.56
2022-10-17T16:00:38.172Z,101126.34
2022-10-17T16:10:43.283Z,101145.06
2022-10-17T16:20:49.579Z,101149.44
2022-10-17T16:30:54.636Z,101166.75
2022-10-17T16:41:01.244Z,101178.94
2022-10-17T16:51:06.550Z,101196.09
2022-10-17T17:01:13.664Z,101205.88
2022-10-17T17:11:23.945Z,101211.91
2022-10-17T17:21:28.543Z,101224.91
2022-10-17T17:31:36.049Z,101249.38
2022-10-17T17:41:41.060Z,101258.22
2022-10-17T17:51:46.721Z,101256.38
2022-10-17T18:01:50.907Z,101265.72
2022-10-17T18:11:56.350Z,101283.47
2022-10-17T18:22:00.351Z,101280.50
2022-10-17T18:32:06.704Z,101297.22
2022-10-17T18:42:11.298Z,101304.63
2022-10-17T18:52:17.019Z,101308.75
2022-10-17T19:02:21.336Z,101324.00
2022-10-17T19:12:26.450Z,101312.81
2022-10-17T19:22:31.201Z,101305.88
2022-10-17T19:32:36.579Z,101311.47
2022-10-17T19:42:40.200Z,101304.13
2022-10-17T19:52:45.218Z,101306.47
2022-10-17T20:02:48.892Z,101299.59
2022-10-17T20:12:54.240Z,101298.25
2022-10-17T20:22:58.009Z,101300.72
2022-10-17T20:33:03.083Z,101313.44
2022-10-17T20:43:09.219Z,101336.38
2022-10-17T21:03:42.438Z,101335.84
2022-10-17T21:13:58.934Z,101341.75
2022-10-17T21:24:06.266Z,101342.38
2022-10-17T21:34:13.599Z,101344.34
2022-10-17T21:44:20.053Z,101324.47
2022-10-17T21:54:25.297Z,101339.88
2022-10-17T22:04:31.671Z,101331.28
2022-10-17T22:14:36.713Z,101329.38
2022-10-17T22:24:40.315Z,101331.75
2022-10-17T22:34:45.919Z,101332.84
2022-10-17T22:44:50.089Z,101329.47
2022-10-17T22:54:55.139Z,101325.41
2022-10-17T23:04:58.979Z,101313.97
2022-10-17T23:15:11.308Z,101316.47
2022-10-17T23:25:14.938Z,101314.88
2022-10-17T23:35:20.115Z,101321.03
2022-10-17T23:45:24.236Z,101314.44
2022-10-17T23:55:29.571Z,101311.16
